createdAt,value
2019-02-24T00:00:38.043Z,4.30
2019-02-24T00:03:07.769Z,4.70
2019-02-24T00:05:37.479Z,4.70
2019-02-24T00:08:06.898Z,4.60
2019-02-24T00:10:36.360Z,4.12
2019-02-24T00:13:05.951Z,4.58
2019-02-24T00:15:35.332Z,4.50
2019-02-24T00:18:04.856Z,5.00
2019-02-24T00:20:34.474Z,4.72
2019-02-24T00:23:04.027Z,4.33
2019-02-24T00:25:33.466Z,4.50
2019-02-24T00:28:07.186Z,4.67
2019-02-24T00:30:35.363Z,4.37
2019-02-24T00:33:04.920Z,4.33
2019-02-24T00:35:34.651Z,4.22
2019-02-24T00:38:04.099Z,4.37
2019-02-24T00:40:33.810Z,4.72
2019-02-24T00:43:03.295Z,4.50
2019-02-24T00:45:32.820Z,4.33
2019-02-24T00:48:02.266Z,4.60
2019-02-24T00:50:31.743Z,4.08
2019-02-24T00:53:01.495Z,3.83
2019-02-24T00:55:31.044Z,4.00
2019-02-24T00:58:00.767Z,4.70
2019-02-24T01:00:30.161Z,4.08
2019-02-24T01:02:59.768Z,4.42
2019-02-24T01:05:29.123Z,4.42
2019-02-24T01:07:58.910Z,4.25
2019-02-24T01:10:29.327Z,4.75
2019-02-24T01:12:58.766Z,4.60
2019-02-24T01:15:28.293Z,4.20
2019-02-24T01:17:57.888Z,4.10
2019-02-24T01:20:27.395Z,5.10
2019-02-24T01:22:56.841Z,4.08
2019-02-24T01:25:26.599Z,3.95
2019-02-24T01:27:55.979Z,4.45
2019-02-24T01:30:25.776Z,3.98
2019-02-24T01:32:55.168Z,3.75
2019-02-24T01:35:24.791Z,4.22
2019-02-24T01:37:54.435Z,4.03
2019-02-24T01:40:24.025Z,4.28
2019-02-24T01:42:53.438Z,4.30
2019-02-24T01:45:22.893Z,4.45
2019-02-24T01:47:52.314Z,5.20
2019-02-24T01:50:22.152Z,4.37
2019-02-24T01:52:51.470Z,4.53
2019-02-24T01:55:20.981Z,4.22
2019-02-24T01:57:50.458Z,3.80
2019-02-24T02:00:19.922Z,4.65
2019-02-24T02:02:49.375Z,4.22
2019-02-24T02:05:18.918Z,4.45
2019-02-24T02:07:48.450Z,4.03
2019-02-24T02:10:18.152Z,4.67
2019-02-24T02:12:47.626Z,3.80
2019-02-24T02:15:17.230Z,4.12
2019-02-24T02:17:46.645Z,4.08
2019-02-24T02:20:16.207Z,3.58
2019-02-24T02:22:45.917Z,3.90
2019-02-24T02:25:15.331Z,3.62
2019-02-24T02:27:45.235Z,4.25
2019-02-24T02:30:14.579Z,3.30
2019-02-24T02:32:44.071Z,3.62
2019-02-24T02:35:13.676Z,3.72
2019-02-24T02:37:43.168Z,3.80
2019-02-24T02:40:12.908Z,3.87
2019-02-24T02:42:42.338Z,3.80
2019-02-24T02:45:11.859Z,3.60
2019-02-24T02:47:41.318Z,4.15
2019-02-24T02:50:10.751Z,3.80
2019-02-24T02:52:40.438Z,3.05
2019-02-24T02:55:10.013Z,3.50
2019-02-24T02:57:39.548Z,3.37
2019-02-24T03:00:16.913Z,3.12
2019-02-24T03:02:46.439Z,3.40
2019-02-24T03:05:15.922Z,3.08
2019-02-24T03:07:50.194Z,3.25
2019-02-24T03:10:19.784Z,3.55
2019-02-24T03:12:49.314Z,3.72
2019-02-24T03:15:18.838Z,3.92
2019-02-24T03:17:48.535Z,3.30
2019-02-24T03:20:18.344Z,3.27
2019-02-24T03:22:47.654Z,3.52
2019-02-24T03:25:17.215Z,3.33
2019-02-24T03:27:46.757Z,3.05
2019-02-24T03:30:16.373Z,3.12
2019-02-24T03:32:45.786Z,3.40
2019-02-24T03:35:15.310Z,3.50
2019-02-24T03:37:44.756Z,3.27
2019-02-24T03:40:14.067Z,3.40
2019-02-24T03:42:43.419Z,3.40
2019-02-24T03:45:12.771Z,3.35
2019-02-24T03:47:42.205Z,2.70
2019-02-24T03:50:11.648Z,3.20
2019-02-24T03:52:41.246Z,3.50
2019-02-24T03:55:10.782Z,3.10
2019-02-24T03:57:40.236Z,3.12
2019-02-24T04:00:09.906Z,3.02
2019-02-24T04:02:39.439Z,3.20
2019-02-24T04:05:08.992Z,2.92
2019-02-24T04:07:38.731Z,2.83
2019-02-24T04:10:08.349Z,2.75
2019-02-24T04:12:38.360Z,3.10
2019-02-24T04:15:08.079Z,2.75
2019-02-24T04:17:37.887Z,3.60
2019-02-24T04:20:07.636Z,2.90
2019-02-24T04:22:37.202Z,2.60
2019-02-24T04:25:06.613Z,2.90
2019-02-24T04:27:36.014Z,2.72
2019-02-24T04:30:05.610Z,2.60
2019-02-24T04:32:34.942Z,2.47
2019-02-24T04:35:04.620Z,2.55
2019-02-24T04:37:34.071Z,2.47
2019-02-24T04:40:03.427Z,2.40
2019-02-24T04:42:33.000Z,2.12
2019-02-24T04:45:02.579Z,2.33
2019-02-24T04:47:32.089Z,2.62
2019-02-24T04:50:01.633Z,2.40
2019-02-24T04:52:31.172Z,2.40
2019-02-24T04:55:00.839Z,1.92
2019-02-24T04:57:30.331Z,2.10
2019-02-24T04:59:59.952Z,2.35
2019-02-24T05:02:29.710Z,2.10
2019-02-24T05:04:59.003Z,2.30
2019-02-24T05:07:28.541Z,2.05
2019-02-24T05:09:58.062Z,2.10
2019-02-24T05:12:27.584Z,2.40
2019-02-24T05:14:57.148Z,2.17
2019-02-24T05:17:26.745Z,2.33
2019-02-24T05:19:58.143Z,2.27
2019-02-24T05:22:27.889Z,2.37
2019-02-24T05:24:57.334Z,2.27
2019-02-24T05:27:26.850Z,2.45
2019-02-24T05:29:56.271Z,2.50
2019-02-24T05:32:25.890Z,2.00
2019-02-24T05:34:55.458Z,2.20
2019-02-24T05:37:25.053Z,2.27
2019-02-24T05:39:54.818Z,2.15
2019-02-24T05:42:25.350Z,2.20
2019-02-24T05:44:54.798Z,2.10
2019-02-24T05:47:24.521Z,1.90
2019-02-24T05:49:53.994Z,2.00
2019-02-24T05:52:23.614Z,2.30
2019-02-24T05:54:53.002Z,2.05
2019-02-24T05:57:22.348Z,2.30
2019-02-24T05:59:55.329Z,2.30
2019-02-24T06:02:23.425Z,2.12
2019-02-24T06:04:52.907Z,2.10
2019-02-24T06:07:22.568Z,2.30
2019-02-24T06:09:52.155Z,2.20
2019-02-24T06:12:21.517Z,2.27
2019-02-24T06:14:51.259Z,2.02
2019-02-24T06:17:20.708Z,2.20
2019-02-24T06:19:50.458Z,2.55
2019-02-24T06:22:19.931Z,2.10
2019-02-24T06:24:49.975Z,2.00
2019-02-24T06:27:19.447Z,2.40
2019-02-24T06:29:49.114Z,2.15
2019-02-24T06:32:18.589Z,2.10
2019-02-24T06:34:48.746Z,2.58
2019-02-24T06:37:18.261Z,2.20
2019-02-24T06:39:48.154Z,2.17
2019-02-24T06:42:17.600Z,2.33
2019-02-24T06:44:47.007Z,2.12
2019-02-24T06:47:16.419Z,2.65
2019-02-24T06:49:46.061Z,2.80
2019-02-24T06:52:15.730Z,2.35
2019-02-24T06:54:45.315Z,2.98
2019-02-24T06:57:15.166Z,2.12
2019-02-24T06:59:44.937Z,2.12
2019-02-24T07:02:15.028Z,2.22
2019-02-24T07:04:44.490Z,2.42
2019-02-24T07:07:14.023Z,2.62
2019-02-24T07:09:43.617Z,2.30
2019-02-24T07:12:13.000Z,2.50
2019-02-24T07:14:42.351Z,2.30
2019-02-24T07:17:11.757Z,2.67
2019-02-24T07:19:41.368Z,2.65
2019-02-24T07:22:10.956Z,2.22
2019-02-24T07:24:40.498Z,2.52
2019-02-24T07:27:10.007Z,2.60
2019-02-24T07:29:39.460Z,3.37
2019-02-24T07:32:09.026Z,4.22
2019-02-24T07:34:38.515Z,4.40
2019-02-24T07:37:13.077Z,7.20
2019-02-24T07:39:40.571Z,7.20
2019-02-24T07:42:10.173Z,8.58
2019-02-24T07:44:39.721Z,9.93
2019-02-24T07:47:09.269Z,10.13
2019-02-24T07:49:38.766Z,10.70
2019-02-24T07:52:08.465Z,12.53
2019-02-24T07:54:37.883Z,11.50
2019-02-24T07:57:07.650Z,10.03
2019-02-24T07:59:37.039Z,9.58
2019-02-24T08:02:06.624Z,9.58
2019-02-24T08:04:36.296Z,10.23
2019-02-24T08:07:05.911Z,19.05
2019-02-24T08:09:35.418Z,17.10
2019-02-24T08:12:05.024Z,21.37
2019-02-24T08:14:34.476Z,17.30
2019-02-24T08:17:03.859Z,13.75
2019-02-24T08:19:33.413Z,10.45
2019-02-24T08:22:02.924Z,8.58
2019-02-24T08:24:32.422Z,7.17
2019-02-24T08:27:01.896Z,8.73
2019-02-24T08:29:31.939Z,7.92
2019-02-24T08:32:01.442Z,6.80
2019-02-24T08:34:32.092Z,6.75
2019-02-24T08:37:01.679Z,5.42
2019-02-24T08:39:31.189Z,5.40
2019-02-24T08:42:01.454Z,5.15
2019-02-24T08:44:30.971Z,6.03
2019-02-24T08:47:00.824Z,8.77
2019-02-24T08:49:30.316Z,7.23
2019-02-24T08:52:00.098Z,4.80
2019-02-24T08:54:29.656Z,5.13
2019-02-24T08:57:00.244Z,5.90
2019-02-24T08:59:29.997Z,5.63
2019-02-24T09:02:00.125Z,4.97
2019-02-24T09:04:29.544Z,4.43
2019-02-24T09:06:59.882Z,3.67
2019-02-24T09:09:29.457Z,4.83
2019-02-24T09:11:59.241Z,4.30
2019-02-24T09:14:28.747Z,4.93
2019-02-24T09:16:58.349Z,4.60
2019-02-24T09:19:27.842Z,4.77
2019-02-24T09:21:57.459Z,3.13
2019-02-24T09:24:29.840Z,3.50
2019-02-24T09:26:59.757Z,4.30
2019-02-24T09:29:29.566Z,3.57
2019-02-24T09:31:59.010Z,4.00
2019-02-24T09:34:28.810Z,3.47
2019-02-24T09:36:58.277Z,3.73
2019-02-24T09:39:28.042Z,3.10
2019-02-24T09:41:57.664Z,5.20
2019-02-24T09:44:27.158Z,3.40
2019-02-24T09:46:57.041Z,3.67
2019-02-24T09:49:26.717Z,4.40
2019-02-24T09:51:56.486Z,5.20
2019-02-24T09:54:25.916Z,3.77
2019-02-24T09:56:55.615Z,3.50
2019-02-24T09:59:25.223Z,3.97
2019-02-24T10:01:54.760Z,30.47
2019-02-24T10:04:24.244Z,8.23
2019-02-24T10:06:53.906Z,6.40
2019-02-24T10:09:23.320Z,3.30
2019-02-24T10:11:52.946Z,4.20
2019-02-24T10:14:22.474Z,3.03
2019-02-24T10:16:52.190Z,2.60
2019-02-24T10:19:21.726Z,2.47
2019-02-24T10:21:51.104Z,2.50
2019-02-24T10:24:20.633Z,3.93
2019-02-24T10:26:50.199Z,2.73
2019-02-24T10:29:19.873Z,2.67
2019-02-24T10:31:49.664Z,2.50
2019-02-24T10:34:19.942Z,3.23
2019-02-24T10:36:49.562Z,2.97
2019-02-24T10:39:19.136Z,4.30
2019-02-24T10:41:48.717Z,3.07
2019-02-24T10:44:18.307Z,2.67
2019-02-24T10:46:48.118Z,5.20
2019-02-24T10:49:17.998Z,4.03
2019-02-24T10:51:47.529Z,3.43
2019-02-24T10:54:16.967Z,3.43
2019-02-24T10:56:46.631Z,3.10
2019-02-24T10:59:16.967Z,2.30
2019-02-24T11:01:46.618Z,2.13
2019-02-24T11:04:16.185Z,2.00
2019-02-24T11:06:45.780Z,2.30
2019-02-24T11:09:15.226Z,2.00
2019-02-24T11:11:44.944Z,2.00
2019-02-24T11:14:14.438Z,2.00
2019-02-24T11:16:44.044Z,1.93
2019-02-24T11:19:14.016Z,1.50
2019-02-24T11:21:44.058Z,1.80
2019-02-24T11:24:14.127Z,1.83
2019-02-24T11:26:44.164Z,1.97
2019-02-24T11:29:14.340Z,2.00
2019-02-24T11:31:44.059Z,1.73
2019-02-24T11:34:14.091Z,1.80
2019-02-24T11:36:44.197Z,1.40
2019-02-24T11:39:14.291Z,2.20
2019-02-24T11:41:44.283Z,1.63
2019-02-24T11:44:14.170Z,2.30
2019-02-24T11:46:44.089Z,1.90
2019-02-24T11:49:14.463Z,2.77
2019-02-24T11:51:44.351Z,1.90
2019-02-24T11:54:14.194Z,1.80
2019-02-24T11:56:43.923Z,1.33
2019-02-24T11:59:13.767Z,1.70
2019-02-24T12:01:47.557Z,1.90
2019-02-24T12:04:15.256Z,2.00
2019-02-24T12:06:44.851Z,1.80
2019-02-24T12:09:14.884Z,1.70
2019-02-24T12:11:44.386Z,2.00
2019-02-24T12:14:14.375Z,1.90
2019-02-24T12:16:43.895Z,1.80
2019-02-24T12:19:14.054Z,1.97
2019-02-24T12:21:43.578Z,1.60
2019-02-24T12:24:13.539Z,1.60
2019-02-24T12:26:43.084Z,1.90
2019-02-24T12:29:12.975Z,1.83
2019-02-24T12:31:42.740Z,1.50
2019-02-24T12:34:12.482Z,1.43
2019-02-24T12:36:42.163Z,1.50
2019-02-24T12:39:11.628Z,1.70
2019-02-24T12:41:41.181Z,1.80
2019-02-24T12:44:10.911Z,1.80
2019-02-24T12:46:40.477Z,2.70
2019-02-24T12:49:10.108Z,2.10
2019-02-24T12:51:39.488Z,1.70
2019-02-24T12:54:09.187Z,1.77
2019-02-24T12:56:38.972Z,2.00
2019-02-24T12:59:08.471Z,1.80
2019-02-24T13:01:38.436Z,2.67
2019-02-24T13:04:08.266Z,2.37
2019-02-24T13:06:37.928Z,1.83
2019-02-24T13:09:11.304Z,2.00
2019-02-24T13:11:40.878Z,1.93
2019-02-24T13:14:10.429Z,1.87
2019-02-24T13:16:40.361Z,1.60
2019-02-24T13:19:10.064Z,1.80
2019-02-24T13:21:39.675Z,1.97
2019-02-24T13:24:09.195Z,4.60
2019-02-24T13:26:38.927Z,8.80
2019-02-24T13:29:08.454Z,11.53
2019-02-24T13:31:37.954Z,25.80
2019-02-24T13:34:07.334Z,5.73
2019-02-24T13:36:37.099Z,3.97
2019-02-24T13:39:07.564Z,3.47
2019-02-24T13:41:37.546Z,2.80
2019-02-24T13:44:06.921Z,2.80
2019-02-24T13:46:36.392Z,5.00
2019-02-24T13:49:06.065Z,3.73
2019-02-24T13:51:35.638Z,3.27
2019-02-24T13:54:05.585Z,3.27
2019-02-24T13:56:35.334Z,5.90
2019-02-24T13:59:04.805Z,15.17
2019-02-24T14:01:34.479Z,2.47
2019-02-24T14:04:03.971Z,5.60
2019-02-24T14:06:33.660Z,17.63
2019-02-24T14:09:03.399Z,10.27
2019-02-24T14:11:32.884Z,10.87
2019-02-24T14:14:02.455Z,8.07
2019-02-24T14:16:32.121Z,3.20
2019-02-24T14:19:01.674Z,1.73
2019-02-24T14:21:31.611Z,2.90
2019-02-24T14:24:01.343Z,1.90
2019-02-24T14:26:30.772Z,1.80
2019-02-24T14:29:00.396Z,2.00
2019-02-24T14:31:30.115Z,2.30
2019-02-24T14:33:59.666Z,1.87
2019-02-24T14:36:29.317Z,2.37
2019-02-24T14:38:58.862Z,2.47
2019-02-24T14:41:28.670Z,3.30
2019-02-24T14:43:58.246Z,1.77
2019-02-24T14:46:27.964Z,2.37
2019-02-24T14:48:57.641Z,2.20
2019-02-24T14:51:27.156Z,1.87
2019-02-24T14:53:56.732Z,2.70
2019-02-24T14:56:26.495Z,2.33
2019-02-24T14:58:56.057Z,3.07
2019-02-24T15:01:26.228Z,2.77
2019-02-24T15:03:55.916Z,1.70
2019-02-24T15:06:25.856Z,1.90
2019-02-24T15:08:55.331Z,1.97
2019-02-24T15:11:25.262Z,2.20
2019-02-24T15:13:55.086Z,2.00
2019-02-24T15:16:24.733Z,2.00
2019-02-24T15:18:55.201Z,1.87
2019-02-24T15:21:25.085Z,2.03
2019-02-24T15:23:54.644Z,2.27
2019-02-24T15:26:24.242Z,2.07
2019-02-24T15:28:54.275Z,2.47
2019-02-24T15:31:23.972Z,4.77
2019-02-24T15:33:53.509Z,4.50
2019-02-24T15:36:23.161Z,2.70
2019-02-24T15:38:53.198Z,3.30
2019-02-24T15:41:29.549Z,3.27
2019-02-24T15:43:54.230Z,3.10
2019-02-24T15:46:24.247Z,2.10
2019-02-24T15:48:53.764Z,2.50
2019-02-24T15:51:23.427Z,2.20
2019-02-24T15:53:52.873Z,4.00
2019-02-24T15:56:22.718Z,8.67
2019-02-24T15:58:52.736Z,4.67
2019-02-24T16:01:22.418Z,4.40
2019-02-24T16:03:52.147Z,2.33
2019-02-24T16:06:22.153Z,2.53
2019-02-24T16:08:51.812Z,2.30
2019-02-24T16:11:21.514Z,2.33
2019-02-24T16:13:51.211Z,2.10
2019-02-24T16:16:20.715Z,2.47
2019-02-24T16:18:51.212Z,2.00
2019-02-24T16:21:20.900Z,2.50
2019-02-24T16:23:50.738Z,2.30
2019-02-24T16:26:20.507Z,2.10
2019-02-24T16:28:50.311Z,2.17
2019-02-24T16:31:19.853Z,4.10
2019-02-24T16:33:49.628Z,3.90
2019-02-24T16:36:19.304Z,5.97
2019-02-24T16:38:49.036Z,3.50
2019-02-24T16:41:19.135Z,2.40
2019-02-24T16:43:49.056Z,2.70
2019-02-24T16:46:18.919Z,2.70
2019-02-24T16:48:48.817Z,3.20
2019-02-24T16:51:18.841Z,2.80
2019-02-24T16:53:48.542Z,3.37
2019-02-24T16:56:18.191Z,10.60
2019-02-24T16:58:47.891Z,10.10
2019-02-24T17:01:18.145Z,17.57
2019-02-24T17:03:47.929Z,4.70
2019-02-24T17:06:17.675Z,2.53
2019-02-24T17:08:52.261Z,2.80
2019-02-24T17:11:19.111Z,2.23
2019-02-24T17:13:48.819Z,2.00
2019-02-24T17:16:18.336Z,2.80
2019-02-24T17:18:48.025Z,2.30
2019-02-24T17:21:17.555Z,2.43
2019-02-24T17:23:49.823Z,2.67
2019-02-24T17:26:18.865Z,2.80
2019-02-24T17:28:48.842Z,2.60
2019-02-24T17:31:27.901Z,2.43
2019-02-24T17:33:50.813Z,2.17
2019-02-24T17:36:20.591Z,2.50
2019-02-24T17:38:50.412Z,2.50
2019-02-24T17:41:20.211Z,2.67
2019-02-24T17:43:50.054Z,2.80
2019-02-24T17:46:19.821Z,2.57
2019-02-24T17:48:49.608Z,2.23
2019-02-24T17:51:21.511Z,2.50
2019-02-24T17:53:51.601Z,2.37
2019-02-24T17:56:21.295Z,2.50
2019-02-24T17:58:51.558Z,3.13
2019-02-24T18:01:21.377Z,3.00
2019-02-24T18:03:51.350Z,2.57
2019-02-24T18:06:21.418Z,3.07
2019-02-24T18:08:54.354Z,3.20
2019-02-24T18:11:22.804Z,2.93
2019-02-24T18:13:52.889Z,2.63
2019-02-24T18:16:22.536Z,3.17
2019-02-24T18:18:52.516Z,3.67
2019-02-24T18:21:22.898Z,3.30
2019-02-24T18:23:53.006Z,3.00
2019-02-24T18:26:23.508Z,3.10
2019-02-24T18:28:53.043Z,2.87
2019-02-24T18:31:23.767Z,3.07
2019-02-24T18:33:53.411Z,3.30
2019-02-24T18:36:23.717Z,3.00
2019-02-24T18:38:54.184Z,3.40
2019-02-24T18:41:24.015Z,3.20
2019-02-24T18:43:53.955Z,2.90
2019-02-24T18:46:23.843Z,3.13
2019-02-24T18:48:53.766Z,2.90
2019-02-24T18:51:23.739Z,2.80
2019-02-24T18:53:53.414Z,3.27
2019-02-24T18:56:23.578Z,3.57
2019-02-24T18:58:53.501Z,3.80
2019-02-24T19:01:23.077Z,3.57
2019-02-24T19:03:57.799Z,3.70
2019-02-24T19:06:25.531Z,3.43
2019-02-24T19:08:55.731Z,3.10
2019-02-24T19:11:25.344Z,3.33
2019-02-24T19:13:55.441Z,3.30
2019-02-24T19:16:25.144Z,3.47
2019-02-24T19:18:54.852Z,3.40
2019-02-24T19:21:24.738Z,3.20
2019-02-24T19:23:54.771Z,3.17
2019-02-24T19:26:24.685Z,2.83
2019-02-24T19:28:54.711Z,3.23
2019-02-24T19:31:24.800Z,3.07
2019-02-24T19:33:54.667Z,2.80
2019-02-24T19:36:24.576Z,2.90
2019-02-24T19:38:54.332Z,3.07
2019-02-24T19:41:24.206Z,3.47
2019-02-24T19:43:54.066Z,3.43
2019-02-24T19:46:26.174Z,4.47
2019-02-24T19:48:56.233Z,3.70
2019-02-24T19:51:26.387Z,3.20
2019-02-24T19:53:56.346Z,3.37
2019-02-24T19:56:26.422Z,3.47
2019-02-24T19:58:56.363Z,3.20
2019-02-24T20:01:26.278Z,3.40
2019-02-24T20:03:56.444Z,3.30
2019-02-24T20:06:26.472Z,3.57
2019-02-24T20:08:56.302Z,3.67
2019-02-24T20:11:25.933Z,3.30
2019-02-24T20:13:55.954Z,3.50
2019-02-24T20:16:26.108Z,3.98
2019-02-24T20:18:55.994Z,4.10
2019-02-24T20:21:25.836Z,4.83
2019-02-24T20:23:55.902Z,3.67
2019-02-24T20:26:25.720Z,4.10
2019-02-24T20:28:55.515Z,4.20
2019-02-24T20:31:25.532Z,3.85
2019-02-24T20:33:55.300Z,3.70
2019-02-24T20:36:25.337Z,4.50
2019-02-24T20:38:55.137Z,4.42
2019-02-24T20:41:25.353Z,4.55
2019-02-24T20:43:54.934Z,4.62
2019-02-24T20:46:24.970Z,5.22
2019-02-24T20:48:54.940Z,7.93
2019-02-24T20:51:24.718Z,7.75
2019-02-24T20:53:54.789Z,7.10
2019-02-24T20:56:25.115Z,6.80
2019-02-24T20:58:54.996Z,6.22
2019-02-24T21:01:24.656Z,5.22
2019-02-24T21:03:54.528Z,4.62
2019-02-24T21:06:24.105Z,4.53
2019-02-24T21:08:53.948Z,5.20
2019-02-24T21:11:23.896Z,4.37
2019-02-24T21:13:53.560Z,4.22
2019-02-24T21:16:23.562Z,4.22
2019-02-24T21:18:53.730Z,3.67
2019-02-24T21:21:23.199Z,3.12
2019-02-24T21:23:53.334Z,3.15
2019-02-24T21:26:23.481Z,3.45
2019-02-24T21:28:53.643Z,3.30
2019-02-24T21:31:23.105Z,3.40
2019-02-24T21:33:53.070Z,3.37
2019-02-24T21:36:22.884Z,2.75
2019-02-24T21:38:52.685Z,3.40
2019-02-24T21:41:22.448Z,2.80
2019-02-24T21:43:52.395Z,3.45
2019-02-24T21:46:21.999Z,3.72
2019-02-24T21:48:51.903Z,3.50
2019-02-24T21:51:21.406Z,4.10
2019-02-24T21:53:51.111Z,3.40
2019-02-24T21:56:20.525Z,3.10
2019-02-24T21:58:50.436Z,3.17
2019-02-24T22:01:20.350Z,3.17
2019-02-24T22:03:50.939Z,3.40
2019-02-24T22:06:20.325Z,3.12
2019-02-24T22:08:49.817Z,3.02
2019-02-24T22:11:19.319Z,2.83
2019-02-24T22:13:48.880Z,3.58
2019-02-24T22:16:18.497Z,3.72
2019-02-24T22:18:48.039Z,3.05
2019-02-24T22:21:17.637Z,3.12
2019-02-24T22:23:47.405Z,3.15
2019-02-24T22:26:16.841Z,2.90
2019-02-24T22:28:46.453Z,4.22
2019-02-24T22:31:15.876Z,4.40
2019-02-24T22:33:45.343Z,6.67
2019-02-24T22:36:15.010Z,7.30
2019-02-24T22:38:44.419Z,6.05
2019-02-24T22:41:14.011Z,5.30
2019-02-24T22:43:43.459Z,4.60
2019-02-24T22:46:13.162Z,4.90
2019-02-24T22:48:42.613Z,4.92
2019-02-24T22:51:12.226Z,4.90
2019-02-24T22:53:41.573Z,4.53
2019-02-24T22:56:11.164Z,4.22
2019-02-24T22:58:40.797Z,4.10
2019-02-24T23:01:16.047Z,3.80
2019-02-24T23:03:47.511Z,3.17
2019-02-24T23:06:17.258Z,3.55
2019-02-24T23:08:46.811Z,3.10
2019-02-24T23:11:16.332Z,3.08
2019-02-24T23:13:45.863Z,3.05
2019-02-24T23:16:15.452Z,4.70
2019-02-24T23:18:44.963Z,4.03
2019-02-24T23:21:14.434Z,2.70
2019-02-24T23:23:44.172Z,3.22
2019-02-24T23:26:13.758Z,3.22
2019-02-24T23:28:43.245Z,3.33
2019-02-24T23:31:12.833Z,3.55
2019-02-24T23:33:42.235Z,2.60
2019-02-24T23:36:11.753Z,3.40
2019-02-24T23:38:41.339Z,3.47
2019-02-24T23:41:10.855Z,3.12
2019-02-24T23:43:40.433Z,3.08
2019-02-24T23:46:09.978Z,3.45
2019-02-24T23:48:39.427Z,2.92
2019-02-24T23:51:09.027Z,3.05
2019-02-24T23:53:38.561Z,3.20
2019-02-24T23:56:08.150Z,3.37
2019-02-24T23:58:37.670Z,3.45
